SBPB/PHB METAR and TAF weather

Enter ICAO airport designator
Station Type Date Time Source
SBPB METAR 2019/08/18 21:45 UTC NOAA

SBPB 182145Z 06010KT CAVOK 27/23 Q1012


Station Type Date Time Source
SBPB Decoded METAR 2019/08/18 21:45 UTC NOAA

Station name not available
Aug 18, 2019 - 05:45 PM EDT / 2019.08.18 2145 UTC
Wind: from the ENE (060 degrees) at 12 MPH (10 KT):0
Visibility: greater than 7 mile(s):0
Temperature: 80 F (27 C)
Dew Point: 73 F (23 C)
Relative Humidity: 78%
Pressure (altimeter): 29.88 in. Hg (1012 hPa)
ob: SBPB 182145Z 06010KT CAVOK 27/23 Q1012
cycle: 22

Station Type Date Time Source
SBPB TAF 2019/08/18 18:39 UTC NOAA

TAF SBPB 181600Z 1818/1906 03015KT 9999 SCT020 TX30/1818Z TN23/1906Z
BECMG 1822/1824 07008KT FEW020
RMK PAY

Example: see airport list